createdAt,value
2022-09-01T00:00:14.616Z,92.80
2022-09-01T00:02:44.281Z,93.00
2022-09-01T00:05:13.970Z,92.80
2022-09-01T00:07:42.645Z,92.70
2022-09-01T00:10:11.867Z,92.60
2022-09-01T00:12:40.442Z,93.00
2022-09-01T00:15:10.914Z,93.00
2022-09-01T00:17:39.427Z,93.10
2022-09-01T00:20:08.150Z,93.10
2022-09-01T00:22:37.201Z,92.80
2022-09-01T00:25:07.628Z,92.80
2022-09-01T00:27:36.130Z,92.80
2022-09-01T00:30:05.227Z,92.60
2022-09-01T00:32:33.733Z,92.40
2022-09-01T00:35:02.252Z,92.30
2022-09-01T00:37:30.843Z,92.30
2022-09-01T00:39:59.318Z,92.40
2022-09-01T00:42:28.224Z,92.40
2022-09-01T00:44:56.764Z,91.90
2022-09-01T00:47:25.370Z,92.10
2022-09-01T00:49:54.135Z,92.60
2022-09-01T00:52:26.802Z,92.70
2022-09-01T00:54:59.301Z,93.10
2022-09-01T00:57:28.057Z,92.70
2022-09-01T00:59:59.581Z,92.70
2022-09-01T01:02:28.230Z,92.70
2022-09-01T01:05:00.650Z,92.70
2022-09-01T01:07:29.939Z,92.30
2022-09-01T01:09:58.718Z,92.60
2022-09-01T01:12:28.962Z,92.40
2022-09-01T01:14:58.220Z,92.30
2022-09-01T01:17:27.065Z,92.50
2022-09-01T01:20:15.517Z,92.30
2022-09-01T01:23:10.049Z,91.90
2022-09-01T01:25:38.599Z,91.80
2022-09-01T01:28:11.004Z,91.80
2022-09-01T01:30:43.180Z,91.70
2022-09-01T01:33:12.346Z,91.60
2022-09-01T01:35:43.111Z,91.40
2022-09-01T01:38:12.478Z,91.30
2022-09-01T01:40:41.752Z,91.40
2022-09-01T01:43:13.307Z,91.30
2022-09-01T01:45:41.923Z,91.10
2022-09-01T01:48:11.710Z,91.00
2022-09-01T01:50:40.469Z,90.90
2022-09-01T01:53:11.523Z,90.90
2022-09-01T01:55:41.407Z,90.70
2022-09-01T01:58:13.127Z,90.40
2022-09-01T02:00:44.026Z,90.60
2022-09-01T02:03:14.017Z,90.60
2022-09-01T02:05:42.592Z,89.40
2022-09-01T02:08:11.629Z,89.30
2022-09-01T02:10:43.343Z,89.90
2022-09-01T02:13:17.374Z,89.30
2022-09-01T02:15:47.715Z,88.30
2022-09-01T02:18:19.304Z,88.30
2022-09-01T02:20:49.211Z,88.60
2022-09-01T02:23:19.248Z,89.20
2022-09-01T02:26:14.439Z,89.50
2022-09-01T02:28:38.327Z,89.40
2022-09-01T02:31:10.161Z,89.90
2022-09-01T02:33:39.953Z,89.80
2022-09-01T02:36:10.360Z,89.50
2022-09-01T02:38:42.742Z,89.00
2022-09-01T02:41:15.442Z,89.50
2022-09-01T02:43:47.442Z,88.40
2022-09-01T02:46:18.444Z,88.30
2022-09-01T02:48:47.251Z,88.60
2022-09-01T02:51:18.355Z,87.90
2022-09-01T02:53:49.828Z,87.60
2022-09-01T02:56:19.338Z,86.80
2022-09-01T02:58:48.068Z,87.20
2022-09-01T03:01:21.594Z,87.20
2022-09-01T03:03:51.389Z,86.80
2022-09-01T03:06:22.151Z,87.30
2022-09-01T03:08:51.395Z,85.60
2022-09-01T03:11:20.193Z,85.80
2022-09-01T03:13:48.760Z,81.60
2022-09-01T03:16:17.443Z,82.10
2022-09-01T03:18:46.041Z,82.70
2022-09-01T03:21:18.251Z,82.50
2022-09-01T03:23:47.668Z,83.30
2022-09-01T03:26:19.704Z,83.40
2022-09-01T03:28:48.817Z,85.00
2022-09-01T03:31:17.637Z,84.80
2022-09-01T03:33:46.447Z,84.60
2022-09-01T03:36:20.369Z,85.20
2022-09-01T03:38:51.421Z,85.40
2022-09-01T03:41:22.746Z,84.20
2022-09-01T03:43:52.368Z,84.60
2022-09-01T03:46:22.736Z,84.90
2022-09-01T03:48:53.551Z,81.90
2022-09-01T03:51:23.773Z,83.80
2022-09-01T03:53:56.014Z,83.20
2022-09-01T03:56:28.645Z,83.60
2022-09-01T03:58:58.262Z,84.00
2022-09-01T04:01:28.784Z,83.60
2022-09-01T04:03:57.361Z,82.80
2022-09-01T04:06:27.198Z,83.30
2022-09-01T04:09:03.645Z,83.30
2022-09-01T04:11:33.504Z,82.90
2022-09-01T04:14:02.282Z,83.20
2022-09-01T04:16:50.745Z,82.70
2022-09-01T04:19:26.747Z,82.40
2022-09-01T04:21:57.071Z,79.90
2022-09-01T04:24:29.380Z,80.60
2022-09-01T04:26:59.787Z,83.50
2022-09-01T04:29:31.791Z,79.10
2022-09-01T04:32:05.121Z,80.30
2022-09-01T04:34:42.745Z,80.40
2022-09-01T04:37:19.290Z,80.60
2022-09-01T04:39:56.205Z,82.60
2022-09-01T04:42:28.405Z,80.40
2022-09-01T04:44:58.413Z,79.80
2022-09-01T04:47:36.238Z,79.40
2022-09-01T04:50:14.704Z,81.10
2022-09-01T04:52:43.988Z,81.10
2022-09-01T04:55:18.654Z,81.90
2022-09-01T04:57:51.195Z,82.90
2022-09-01T05:00:24.394Z,80.70
2022-09-01T05:03:04.942Z,79.90
2022-09-01T05:05:44.207Z,81.30
2022-09-01T05:08:23.642Z,82.50
2022-09-01T05:10:56.652Z,81.00
2022-09-01T05:13:25.682Z,81.50
2022-09-01T05:16:07.178Z,83.30
2022-09-01T05:18:36.330Z,83.30
2022-09-01T05:21:11.036Z,80.20
2022-09-01T05:23:42.845Z,81.00
2022-09-01T05:26:18.056Z,80.60
2022-09-01T05:28:46.952Z,80.70
2022-09-01T05:31:16.067Z,79.20
2022-09-01T05:33:47.350Z,80.30
2022-09-01T05:36:19.045Z,79.60
2022-09-01T05:38:48.658Z,80.30
2022-09-01T05:41:17.912Z,80.30
2022-09-01T05:43:49.505Z,81.20
2022-09-01T05:49:05.612Z,80.50
2022-09-01T05:51:45.677Z,78.30
2022-09-01T05:54:18.230Z,78.10
2022-09-01T05:56:47.198Z,78.10
2022-09-01T05:59:24.843Z,79.50
2022-09-01T06:01:54.618Z,79.20
2022-09-01T06:04:23.991Z,78.60
2022-09-01T06:07:07.036Z,76.20
2022-09-01T06:09:43.231Z,74.80
2022-09-01T06:12:18.915Z,74.90
2022-09-01T06:14:48.547Z,75.70
2022-09-01T06:17:17.661Z,78.40
2022-09-01T06:19:46.840Z,76.10
2022-09-01T06:22:15.355Z,74.10
2022-09-01T06:24:45.047Z,74.80
2022-09-01T06:27:19.616Z,75.20
2022-09-01T06:29:54.781Z,75.60
2022-09-01T06:32:26.853Z,74.00
2022-09-01T06:34:55.844Z,76.00
2022-09-01T06:37:24.394Z,75.00
2022-09-01T06:39:52.994Z,74.70
2022-09-01T06:42:22.996Z,76.40
2022-09-01T06:44:51.517Z,76.70
2022-09-01T06:47:20.736Z,75.80
2022-09-01T06:49:49.309Z,78.10
2022-09-01T06:52:17.866Z,74.40
2022-09-01T06:54:46.434Z,74.60
2022-09-01T07:00:12.262Z,75.20
2022-09-01T07:02:42.577Z,76.00
2022-09-01T07:05:58.873Z,75.30
2022-09-01T07:08:07.250Z,72.90
2022-09-01T07:11:19.464Z,73.50
2022-09-01T07:13:26.593Z,76.10
2022-09-01T07:18:58.285Z,77.40
2022-09-01T07:22:06.816Z,75.40
2022-09-01T07:24:19.529Z,74.30
2022-09-01T07:26:54.569Z,75.90
2022-09-01T07:29:24.739Z,74.50
2022-09-01T07:43:26.370Z,74.40
2022-09-01T07:45:58.634Z,75.40
2022-09-01T07:49:01.271Z,74.50
2022-09-01T07:51:37.678Z,73.50
2022-09-01T07:54:06.960Z,74.30
2022-09-01T07:56:39.722Z,72.60
2022-09-01T07:59:14.641Z,72.00
2022-09-01T08:01:44.312Z,71.50
2022-09-01T08:04:12.992Z,70.60
2022-09-01T08:06:41.564Z,70.00
2022-09-01T08:09:25.363Z,72.00
2022-09-01T08:12:02.543Z,71.90
2022-09-01T08:14:34.183Z,71.70
2022-09-01T08:17:16.944Z,72.80
2022-09-01T08:19:48.114Z,73.00
2022-09-01T08:22:16.803Z,74.70
2022-09-01T08:24:45.419Z,73.80
2022-09-01T08:27:13.937Z,75.30
2022-09-01T08:29:42.649Z,74.50
2022-09-01T08:32:12.564Z,73.70
2022-09-01T08:34:41.380Z,74.70
2022-09-01T08:37:09.875Z,73.00
2022-09-01T08:39:38.560Z,76.20
2022-09-01T08:42:13.136Z,76.40
2022-09-01T08:44:56.683Z,74.30
2022-09-01T08:47:35.585Z,73.70
2022-09-01T08:50:13.442Z,75.30
2022-09-01T08:52:48.376Z,74.60
2022-09-01T08:55:24.019Z,74.90
2022-09-01T08:57:58.498Z,74.80
2022-09-01T09:00:29.774Z,74.70
2022-09-01T09:02:58.370Z,75.80
2022-09-01T09:05:30.000Z,72.60
2022-09-01T09:08:06.554Z,72.50
2022-09-01T09:10:54.054Z,73.50
2022-09-01T09:13:31.680Z,74.00
2022-09-01T09:16:09.225Z,75.70
2022-09-01T09:18:56.223Z,76.90
2022-09-01T09:21:38.665Z,77.70
2022-09-01T09:24:37.043Z,78.30
2022-09-01T09:27:09.617Z,79.60
2022-09-01T09:29:39.728Z,80.20
2022-09-01T09:32:39.521Z,80.10
2022-09-01T09:35:00.018Z,80.80
2022-09-01T09:37:30.286Z,80.70
2022-09-01T09:40:13.393Z,81.30
2022-09-01T09:42:43.446Z,82.40
2022-09-01T09:45:22.581Z,83.10
2022-09-01T09:47:51.119Z,83.70
2022-09-01T09:50:28.566Z,84.20
2022-09-01T09:53:16.466Z,84.90
2022-09-01T09:56:10.574Z,86.10
2022-09-01T09:58:40.650Z,88.90
2022-09-01T10:01:17.901Z,89.80
2022-09-01T10:03:51.419Z,89.30
2022-09-01T10:06:35.669Z,89.40
2022-09-01T10:09:06.646Z,90.10
2022-09-01T10:11:41.380Z,90.10
2022-09-01T10:14:22.727Z,90.80
2022-09-01T10:17:04.584Z,90.70
2022-09-01T10:19:35.888Z,90.80
2022-09-01T10:22:04.811Z,86.70
2022-09-01T10:24:38.773Z,86.00
2022-09-01T10:27:14.837Z,86.00
2022-09-01T10:29:47.713Z,85.50
2022-09-01T10:32:37.901Z,85.80
2022-09-01T10:35:14.533Z,85.60
2022-09-01T10:37:43.825Z,85.40
2022-09-01T10:40:12.486Z,85.50
2022-09-01T10:42:45.273Z,85.10
2022-09-01T10:45:30.119Z,84.80
2022-09-01T10:48:30.464Z,84.90
2022-09-01T10:51:21.112Z,84.70
2022-09-01T10:53:51.250Z,84.60
2022-09-01T10:56:43.580Z,84.20
2022-09-01T10:59:40.169Z,84.30
2022-09-01T11:02:36.032Z,84.30
2022-09-01T11:05:02.987Z,84.40
2022-09-01T11:07:57.947Z,84.70
2022-09-01T11:10:38.309Z,84.90
2022-09-01T11:13:10.604Z,85.20
2022-09-01T11:15:45.048Z,85.00
2022-09-01T11:18:19.423Z,85.10
2022-09-01T11:20:48.356Z,85.20
2022-09-01T11:23:32.291Z,85.60
2022-09-01T11:26:19.431Z,86.00
2022-09-01T11:28:48.593Z,85.60
2022-09-01T11:31:22.109Z,86.20
2022-09-01T11:33:53.844Z,85.90
2022-09-01T11:36:40.701Z,85.90
2022-09-01T11:39:18.049Z,85.80
2022-09-01T11:41:59.684Z,85.60
2022-09-01T11:44:36.523Z,86.30
2022-09-01T11:47:23.474Z,87.90
2022-09-01T11:49:55.523Z,86.80
2022-09-01T11:52:26.191Z,86.60
2022-09-01T11:54:55.815Z,87.20
2022-09-01T11:57:26.862Z,86.90
2022-09-01T11:59:56.076Z,87.20
2022-09-01T12:02:36.973Z,86.90
2022-09-01T12:05:25.622Z,86.30
2022-09-01T12:07:54.708Z,85.90
2022-09-01T12:10:27.436Z,85.80
2022-09-01T12:13:10.584Z,85.70
2022-09-01T12:16:06.903Z,85.80
2022-09-01T12:18:33.651Z,85.90
2022-09-01T12:21:03.320Z,85.90
2022-09-01T12:23:31.826Z,86.00
2022-09-01T12:26:02.253Z,85.90
2022-09-01T12:28:35.148Z,85.50
2022-09-01T12:31:07.561Z,85.10
2022-09-01T12:33:37.085Z,85.00
2022-09-01T12:36:26.151Z,84.60
2022-09-01T12:38:55.634Z,84.50
2022-09-01T12:41:25.392Z,84.40
2022-09-01T12:43:54.942Z,84.30
2022-09-01T12:46:46.727Z,84.10
2022-09-01T12:49:21.974Z,84.20
2022-09-01T12:51:50.537Z,84.20
2022-09-01T12:54:26.088Z,84.40
2022-09-01T12:56:54.589Z,84.50
2022-09-01T12:59:31.984Z,84.10
2022-09-01T13:02:23.495Z,84.10
2022-09-01T13:04:52.381Z,84.40
2022-09-01T13:07:21.202Z,84.40
2022-09-01T13:09:49.854Z,84.30
2022-09-01T13:12:19.958Z,84.20
2022-09-01T13:14:48.856Z,84.30
2022-09-01T13:17:17.527Z,85.00
2022-09-01T13:19:46.091Z,84.30
2022-09-01T13:22:14.628Z,84.30
2022-09-01T13:24:43.150Z,84.30
2022-09-01T13:27:21.815Z,84.50
2022-09-01T13:29:51.437Z,84.50
2022-09-01T13:32:22.817Z,84.50
2022-09-01T13:34:53.638Z,84.60
2022-09-01T13:37:22.581Z,84.70
2022-09-01T13:39:51.251Z,84.50
2022-09-01T13:42:20.329Z,84.30
2022-09-01T13:44:52.478Z,84.40
2022-09-01T13:47:30.865Z,84.30
2022-09-01T13:50:09.684Z,84.30
2022-09-01T13:52:39.895Z,84.40
2022-09-01T13:55:08.694Z,84.40
2022-09-01T13:57:37.243Z,84.50
2022-09-01T14:00:07.414Z,84.50
2022-09-01T14:02:36.427Z,84.70
2022-09-01T14:05:05.275Z,84.80
2022-09-01T14:07:33.882Z,85.70
2022-09-01T14:10:02.692Z,85.20
2022-09-01T14:12:31.928Z,85.20
2022-09-01T14:15:18.432Z,85.50
2022-09-01T14:17:49.683Z,85.50
2022-09-01T14:20:22.702Z,85.40
2022-09-01T14:22:51.896Z,85.80
2022-09-01T14:25:21.759Z,85.80
2022-09-01T14:27:50.909Z,85.90
2022-09-01T14:30:22.206Z,85.70
2022-09-01T14:32:51.544Z,85.40
2022-09-01T14:35:21.298Z,85.90
2022-09-01T14:37:49.768Z,85.90
2022-09-01T14:40:19.406Z,86.10
2022-09-01T14:42:52.731Z,85.60
2022-09-01T14:45:22.560Z,85.80
2022-09-01T14:47:51.791Z,86.30
2022-09-01T14:50:23.126Z,86.70
2022-09-01T14:52:54.243Z,86.70
2022-09-01T14:55:24.211Z,86.90
2022-09-01T14:57:53.290Z,86.90
2022-09-01T15:00:22.641Z,86.40
2022-09-01T15:02:51.158Z,86.00
2022-09-01T15:05:19.760Z,85.90
2022-09-01T15:07:48.375Z,85.80
2022-09-01T15:10:24.679Z,85.90
2022-09-01T15:12:56.228Z,87.30
2022-09-01T15:15:25.428Z,88.00
2022-09-01T15:17:54.369Z,88.20
2022-09-01T15:20:41.544Z,88.70
2022-09-01T15:23:10.397Z,89.10
2022-09-01T15:25:39.262Z,89.30
2022-09-01T15:28:07.817Z,88.50
2022-09-01T15:30:36.957Z,87.90
2022-09-01T15:33:05.927Z,88.40
2022-09-01T15:35:34.652Z,88.50
2022-09-01T15:38:03.217Z,88.10
2022-09-01T15:40:35.695Z,88.10
2022-09-01T15:43:06.503Z,88.20
2022-09-01T15:45:35.278Z,88.80
2022-09-01T15:48:04.990Z,89.70
2022-09-01T15:50:33.536Z,89.90
2022-09-01T15:53:03.201Z,90.20
2022-09-01T15:55:33.155Z,90.70
2022-09-01T15:58:01.662Z,90.60
2022-09-01T16:00:31.494Z,90.70
2022-09-01T16:03:02.863Z,90.80
2022-09-01T16:05:32.750Z,90.70
2022-09-01T16:08:02.395Z,90.70
2022-09-01T16:10:33.704Z,90.90
2022-09-01T16:13:05.618Z,90.70
2022-09-01T16:15:34.525Z,90.60
2022-09-01T16:18:07.531Z,90.60
2022-09-01T16:20:51.570Z,90.70
2022-09-01T16:23:21.936Z,90.70
2022-09-01T16:25:50.944Z,90.40
2022-09-01T16:28:25.623Z,90.20
2022-09-01T16:30:55.643Z,90.60
2022-09-01T16:33:24.257Z,91.00
2022-09-01T16:36:04.600Z,91.00
2022-09-01T16:38:50.179Z,91.10
2022-09-01T16:41:29.254Z,91.40
2022-09-01T16:44:02.954Z,91.30
2022-09-01T16:46:31.827Z,91.40
2022-09-01T16:49:06.210Z,91.20
2022-09-01T16:51:56.077Z,90.90
2022-09-01T16:54:30.872Z,90.70
2022-09-01T16:57:03.442Z,90.80
2022-09-01T16:59:31.927Z,91.00
2022-09-01T17:02:18.961Z,90.90
2022-09-01T17:04:48.810Z,90.90
2022-09-01T17:07:29.850Z,90.60
2022-09-01T17:10:04.169Z,90.80
2022-09-01T17:12:44.571Z,90.50
2022-09-01T17:15:16.009Z,90.60
2022-09-01T17:17:50.722Z,90.80
2022-09-01T17:20:26.488Z,91.00
2022-09-01T17:22:57.780Z,90.90
2022-09-01T17:25:34.032Z,91.00
2022-09-01T17:28:05.177Z,91.30
2022-09-01T17:30:36.592Z,91.40
2022-09-01T17:33:17.603Z,91.60
2022-09-01T17:35:54.226Z,91.70
2022-09-01T17:38:36.986Z,91.70
2022-09-01T17:41:17.333Z,91.50
2022-09-01T17:43:49.190Z,91.40
2022-09-01T17:46:21.261Z,91.50
2022-09-01T17:49:08.148Z,91.40
2022-09-01T17:51:41.179Z,91.10
2022-09-01T17:54:20.753Z,91.30
2022-09-01T17:56:56.767Z,91.50
2022-09-01T17:59:43.478Z,91.50
2022-09-01T18:02:30.547Z,92.00
2022-09-01T18:05:15.256Z,92.20
2022-09-01T18:07:43.760Z,92.70
2022-09-01T18:10:19.024Z,92.60
2022-09-01T18:12:51.962Z,92.70
2022-09-01T18:15:23.338Z,92.50
2022-09-01T18:18:11.446Z,92.40
2022-09-01T18:20:47.409Z,92.40
2022-09-01T18:23:18.885Z,92.30
2022-09-01T18:26:06.555Z,92.00
2022-09-01T18:28:37.840Z,92.10
2022-09-01T18:31:25.021Z,92.30
2022-09-01T18:34:12.095Z,92.40
2022-09-01T18:36:59.666Z,92.40
2022-09-01T18:39:31.267Z,92.50
2022-09-01T18:42:09.210Z,92.30
2022-09-01T18:44:45.055Z,91.00
2022-09-01T18:47:15.158Z,91.50
2022-09-01T18:49:50.355Z,91.00
2022-09-01T18:52:26.227Z,91.60
2022-09-01T18:55:02.052Z,91.70
2022-09-01T18:57:36.918Z,90.90
2022-09-01T19:00:08.898Z,91.50
2022-09-01T19:02:55.153Z,91.80
2022-09-01T19:05:31.329Z,92.40
2022-09-01T19:08:01.694Z,93.20
2022-09-01T19:10:35.346Z,93.70
2022-09-01T19:13:10.964Z,93.70
2022-09-01T19:15:39.550Z,93.20
2022-09-01T19:18:11.264Z,93.20
2022-09-01T19:20:42.954Z,93.00
2022-09-01T19:23:15.041Z,93.10
2022-09-01T19:25:44.075Z,93.10
2022-09-01T19:28:28.350Z,93.20
2022-09-01T19:31:03.863Z,93.50
2022-09-01T19:33:37.702Z,94.20
2022-09-01T19:36:08.436Z,94.80
2022-09-01T19:38:38.734Z,95.10
2022-09-01T19:41:14.040Z,95.60
2022-09-01T19:43:44.146Z,95.30
2022-09-01T19:46:12.698Z,95.40
2022-09-01T19:49:04.731Z,96.10
2022-09-01T19:51:41.029Z,96.00
2022-09-01T19:54:17.067Z,95.30
2022-09-01T19:56:50.409Z,95.70
2022-09-01T19:59:28.738Z,95.70
2022-09-01T20:02:00.363Z,95.70
2022-09-01T20:04:38.309Z,94.50
2022-09-01T20:07:10.301Z,95.80
2022-09-01T20:09:44.216Z,96.40
2022-09-01T20:12:32.152Z,96.80
2022-09-01T20:15:04.962Z,96.70
2022-09-01T20:17:37.579Z,97.10
2022-09-01T20:20:11.557Z,97.00
2022-09-01T20:22:43.653Z,96.90
2022-09-01T20:25:14.168Z,96.80
2022-09-01T20:27:45.760Z,96.90
2022-09-01T20:30:20.626Z,96.60
2022-09-01T20:32:52.420Z,96.00
2022-09-01T20:35:26.135Z,95.80
2022-09-01T20:38:02.073Z,95.90
2022-09-01T20:40:33.750Z,95.70
2022-09-01T20:43:23.974Z,94.50
2022-09-01T20:45:52.730Z,94.70
2022-09-01T20:48:24.357Z,94.60
2022-09-01T20:51:02.742Z,94.90
2022-09-01T20:53:52.608Z,95.50
2022-09-01T20:56:36.387Z,95.30
2022-09-01T20:59:12.592Z,95.40
2022-09-01T21:02:00.432Z,95.30
2022-09-01T21:04:52.035Z,95.80
2022-09-01T21:07:22.982Z,96.20
2022-09-01T21:09:54.670Z,96.00
2022-09-01T21:12:39.984Z,95.70
2022-09-01T21:15:08.525Z,95.90
2022-09-01T21:17:50.508Z,95.90
2022-09-01T21:20:27.376Z,95.90
2022-09-01T21:22:56.771Z,95.60
2022-09-01T21:25:25.503Z,96.30
2022-09-01T21:27:57.560Z,96.00
2022-09-01T21:30:26.963Z,96.20
2022-09-01T21:32:55.583Z,96.00
2022-09-01T21:35:24.683Z,96.00
2022-09-01T21:37:53.498Z,95.90
2022-09-01T21:40:23.830Z,95.00
2022-09-01T21:42:57.477Z,95.40
2022-09-01T21:45:26.318Z,95.40
2022-09-01T21:47:55.474Z,95.50
2022-09-01T21:50:25.280Z,95.50
2022-09-01T21:52:54.003Z,95.70
2022-09-01T21:55:24.485Z,95.90
2022-09-01T21:57:53.347Z,95.80
2022-09-01T22:00:23.947Z,95.90
2022-09-01T22:02:52.555Z,95.70
2022-09-01T22:05:21.334Z,96.10
2022-09-01T22:07:49.875Z,96.20
2022-09-01T22:10:19.823Z,96.00
2022-09-01T22:12:49.463Z,95.60
2022-09-01T22:15:19.324Z,96.20
2022-09-01T22:17:48.211Z,95.00
2022-09-01T22:20:19.617Z,94.50
2022-09-01T22:22:50.243Z,94.00
2022-09-01T22:25:20.819Z,94.80
2022-09-01T22:27:49.418Z,94.30
2022-09-01T22:30:18.878Z,94.90
2022-09-01T22:32:49.137Z,95.60
2022-09-01T22:35:19.359Z,95.70
2022-09-01T22:37:48.375Z,95.40
2022-09-01T22:40:17.551Z,95.80
2022-09-01T22:42:46.769Z,96.10
2022-09-01T22:45:16.281Z,96.00
2022-09-01T22:47:45.031Z,96.50
2022-09-01T22:50:13.597Z,96.40
2022-09-01T22:52:43.233Z,95.90
2022-09-01T22:55:14.749Z,95.00
2022-09-01T22:57:43.443Z,95.10
2022-09-01T23:00:12.295Z,95.60
2022-09-01T23:02:40.894Z,95.90
2022-09-01T23:05:09.952Z,96.20
2022-09-01T23:07:39.441Z,96.60
2022-09-01T23:10:09.427Z,96.70
2022-09-01T23:12:37.956Z,95.80
2022-09-01T23:15:06.721Z,95.10
2022-09-01T23:17:37.773Z,94.80
2022-09-01T23:20:07.779Z,95.50
2022-09-01T23:22:36.343Z,96.10
2022-09-01T23:25:05.081Z,96.40
2022-09-01T23:27:33.905Z,96.60
2022-09-01T23:30:02.411Z,96.70
2022-09-01T23:32:31.348Z,96.60
2022-09-01T23:35:00.835Z,96.90
2022-09-01T23:37:30.065Z,96.90
2022-09-01T23:39:59.057Z,96.30
2022-09-01T23:42:27.592Z,96.30
2022-09-01T23:44:56.129Z,96.50
2022-09-01T23:47:24.684Z,96.90
2022-09-01T23:49:53.331Z,97.00
2022-09-01T23:52:21.842Z,97.20
2022-09-01T23:54:50.405Z,97.90
2022-09-01T23:57:20.168Z,97.60
2022-09-01T23:59:48.798Z,97.80
